Atlantic Pioneer — WDI6800 — position and weather

sailwx.info

Track history (hours):
 
Tides and Currents Weather Stations Pressure Air Temp Water Temp Dewpoint Dewpoint Depression Visibility Wind Speed Wind Dir Waves Ship Positions

Atlantic Pioneer

Owner: Rhode Island Fast Ferry, North Kingstown, RI. More information available from US FCC via Universal Licensing System and Coast Guard Vessel Documentation Center.

Last reported at 2018-Jul-20 22:28 UTC. Time now 2018-Jul-21 11:41 UTC.
Position N 41°35' W 071°25'.

Length 20 m; draft 1.2 m.

Type: High speed craft. MMSI: 367722360.

Date/timePositionNaut miles runAvg speedWind from/ knotsBaromVisibWave heightAir tempDewpointWater temp
2018-Jul-20 22:28N 41°35' W 071°25'2 0.7
2018-Jul-20 19:13N 41°33' W 071°24'210.1
2018-Jul-20 18:59N 41°35' W 071°25'0 0.0
2018-Jul-19 21:17N 41°35' W 071°25'4 0.3
2018-Jul-19 10:17N 41°32' W 071°24'413.0
2018-Jul-19 10:01N 41°35' W 071°25'  
2018-Jul-14 16:05N 41°35' W 071°25'0 0.0
2018-Jul-14 16:00N 41°35' W 071°25'0 0.0
2018-Jul-13 21:37N 41°35' W 071°25'217.4
2018-Jul-13 21:29N 41°33' W 071°24'24 3.1
2018-Jul-13 13:38N 41°09' W 071°31'0 1.2
2018-Jul-13 13:30N 41°09' W 071°31'2 3.3
2018-Jul-13 13:00N 41°08' W 071°32'0 0.7
2018-Jul-13 12:30N 41°07' W 071°32'0 0.7
2018-Jul-13 12:00N 41°07' W 071°31'0 0.7
2018-Jul-13 11:29N 41°07' W 071°32'1521.9
2018-Jul-13 10:46N 41°22' W 071°26'1325.3
2018-Jul-13 10:15N 41°35' W 071°24'1 2.5
2018-Jul-13 10:00N 41°35' W 071°25'  
Track history (hours):
 
Tides and Currents Weather Stations Pressure Air Temp Water Temp Dewpoint Dewpoint Depression Visibility Wind Speed Wind Dir Waves Ship Positions

Atlantic Pioneer

Owner: Rhode Island Fast Ferry, North Kingstown, RI. More information available from US FCC via Universal Licensing System and Coast Guard Vessel Documentation Center.

Last reported at 2018-Jul-20 22:28 UTC. Time now 2018-Jul-21 11:41 UTC.
Position N 41°35' W 071°25'.

Length 20 m; draft 1.2 m.

Type: High speed craft. MMSI: 367722360.

Date/timePositionNaut miles runAvg speedWind from/ knotsBaromVisibWave heightAir tempDewpointWater temp
2018-Jul-20 22:28N 41°35' W 071°25'2 0.7
2018-Jul-20 19:13N 41°33' W 071°24'210.1
2018-Jul-20 18:59N 41°35' W 071°25'0 0.0
2018-Jul-19 21:17N 41°35' W 071°25'4 0.3
2018-Jul-19 10:17N 41°32' W 071°24'413.0
2018-Jul-19 10:01N 41°35' W 071°25'  
2018-Jul-14 16:05N 41°35' W 071°25'0 0.0
2018-Jul-14 16:00N 41°35' W 071°25'0 0.0
2018-Jul-13 21:37N 41°35' W 071°25'217.4
2018-Jul-13 21:29N 41°33' W 071°24'24 3.1
2018-Jul-13 13:38N 41°09' W 071°31'0 1.2
2018-Jul-13 13:30N 41°09' W 071°31'2 3.3
2018-Jul-13 13:00N 41°08' W 071°32'0 0.7
2018-Jul-13 12:30N 41°07' W 071°32'0 0.7
2018-Jul-13 12:00N 41°07' W 071°31'0 0.7
2018-Jul-13 11:29N 41°07' W 071°32'1521.9
2018-Jul-13 10:46N 41°22' W 071°26'1325.3
2018-Jul-13 10:15N 41°35' W 071°24'1 2.5
2018-Jul-13 10:00N 41°35' W 071°25'  

Dump ship's entire track history